sensor_id;sensor_type;location;lat;lon;timestamp;pressure;altitude;pressure_sealevel;temperature;humidity
40384;BME280;26097;42.366;23.818;2022-08-03T00:00:53;94196.59;;;13.94;100.00
40384;BME280;26097;42.366;23.818;2022-08-03T00:03:54;94197.97;;;13.89;100.00
40384;BME280;26097;42.366;23.818;2022-08-03T00:06:54;94195.06;;;13.92;100.00
40384;BME280;26097;42.366;23.818;2022-08-03T00:09:55;94195.50;;;13.87;100.00
40384;BME280;26097;42.366;23.818;2022-08-03T00:12:55;94203.19;;;13.79;100.00
40384;BME280;26097;42.366;23.818;2022-08-03T00:15:56;94199.75;;;13.78;100.00
40384;BME280;26097;42.366;23.818;2022-08-03T00:18:56;94194.75;;;13.75;100.00
40384;BME280;26097;42.366;23.818;2022-08-03T00:21:57;94194.06;;;13.73;100.00
40384;BME280;26097;42.366;23.818;2022-08-03T00:24:58;94193.38;;;13.71;100.00
40384;BME280;26097;42.366;23.818;2022-08-03T00:27:59;94194.06;;;13.73;100.00
40384;BME280;26097;42.366;23.818;2022-08-03T00:30:59;94198.47;;;13.63;100.00
40384;BME280;26097;42.366;23.818;2022-08-03T00:34:00;94208.94;;;13.63;100.00
40384;BME280;26097;42.366;23.818;2022-08-03T00:37:00;94200.66;;;13.57;100.00
40384;BME280;26097;42.366;23.818;2022-08-03T00:40:00;94198.19;;;13.66;100.00
40384;BME280;26097;42.366;23.818;2022-08-03T00:43:03;94193.41;;;13.81;100.00
40384;BME280;26097;42.366;23.818;2022-08-03T00:46:04;94192.50;;;14.31;100.00
40384;BME280;26097;42.366;23.818;2022-08-03T00:49:04;94193.66;;;14.58;99.61
40384;BME280;26097;42.366;23.818;2022-08-03T00:52:07;94185.22;;;14.54;100.00
40384;BME280;26097;42.366;23.818;2022-08-03T00:55:09;94192.53;;;14.51;100.00
40384;BME280;26097;42.366;23.818;2022-08-03T00:58:10;94187.84;;;14.45;100.00
40384;BME280;26097;42.366;23.818;2022-08-03T01:01:11;94181.22;;;14.40;100.00
40384;BME280;26097;42.366;23.818;2022-08-03T01:04:12;94179.56;;;14.39;100.00
40384;BME280;26097;42.366;23.818;2022-08-03T01:13:58;94182.72;;;14.33;100.00
40384;BME280;26097;42.366;23.818;2022-08-03T01:17:14;94175.81;;;14.22;100.00
40384;BME280;26097;42.366;23.818;2022-08-03T01:20:19;94186.16;;;14.24;100.00
40384;BME280;26097;42.366;23.818;2022-08-03T01:23:33;94185.88;;;14.17;100.00
40384;BME280;26097;42.366;23.818;2022-08-03T01:30:08;94190.28;;;13.97;100.00
40384;BME280;26097;42.366;23.818;2022-08-03T01:33:21;94181.00;;;13.93;100.00
40384;BME280;26097;42.366;23.818;2022-08-03T01:36:28;94175.22;;;13.89;100.00
40384;BME280;26097;42.366;23.818;2022-08-03T01:39:31;94177.56;;;13.82;100.00
40384;BME280;26097;42.366;23.818;2022-08-03T01:42:33;94175.91;;;13.81;100.00
40384;BME280;26097;42.366;23.818;2022-08-03T01:45:36;94176.69;;;13.72;100.00
40384;BME280;26097;42.366;23.818;2022-08-03T01:48:39;94177.50;;;13.63;100.00
40384;BME280;26097;42.366;23.818;2022-08-03T01:51:43;94184.47;;;13.52;100.00
40384;BME280;26097;42.366;23.818;2022-08-03T01:54:47;94170.38;;;13.43;100.00
40384;BME280;26097;42.366;23.818;2022-08-03T01:57:49;94184.56;;;13.41;100.00
40384;BME280;26097;42.366;23.818;2022-08-03T02:00:51;94173.41;;;13.39;100.00
40384;BME280;26097;42.366;23.818;2022-08-03T02:03:57;94173.78;;;13.34;100.00
40384;BME280;26097;42.366;23.818;2022-08-03T02:07:00;94174.06;;;13.31;100.00
40384;BME280;26097;42.366;23.818;2022-08-03T02:10:03;94178.13;;;13.24;100.00
40384;BME280;26097;42.366;23.818;2022-08-03T02:13:05;94177.59;;;13.20;100.00
40384;BME280;26097;42.366;23.818;2022-08-03T02:16:06;94169.28;;;13.15;100.00
40384;BME280;26097;42.366;23.818;2022-08-03T02:19:08;94163.22;;;13.14;100.00
40384;BME280;26097;42.366;23.818;2022-08-03T02:22:11;94170.38;;;13.12;100.00
40384;BME280;26097;42.366;23.818;2022-08-03T02:25:13;94171.03;;;13.05;100.00
40384;BME280;26097;42.366;23.818;2022-08-03T02:28:16;94179.13;;;13.02;100.00
40384;BME280;26097;42.366;23.818;2022-08-03T02:31:32;94168.94;;;12.98;100.00
40384;BME280;26097;42.366;23.818;2022-08-03T02:34:33;94172.09;;;13.02;100.00
40384;BME280;26097;42.366;23.818;2022-08-03T02:37:41;94179.25;;;13.00;100.00
40384;BME280;26097;42.366;23.818;2022-08-03T02:40:42;94182.97;;;12.97;100.00
40384;BME280;26097;42.366;23.818;2022-08-03T02:43:47;94185.81;;;12.94;100.00
40384;BME280;26097;42.366;23.818;2022-08-03T02:46:53;94192.03;;;12.93;100.00
40384;BME280;26097;42.366;23.818;2022-08-03T02:49:56;94176.47;;;12.92;100.00
40384;BME280;26097;42.366;23.818;2022-08-03T02:52:58;94182.66;;;12.91;100.00
40384;BME280;26097;42.366;23.818;2022-08-03T02:56:01;94188.00;;;12.89;100.00
40384;BME280;26097;42.366;23.818;2022-08-03T02:59:04;94186.63;;;12.85;100.00
40384;BME280;26097;42.366;23.818;2022-08-03T03:02:05;94194.19;;;12.88;100.00
40384;BME280;26097;42.366;23.818;2022-08-03T03:05:06;94190.88;;;12.86;100.00
40384;BME280;26097;42.366;23.818;2022-08-03T03:08:11;94189.75;;;12.79;100.00
40384;BME280;26097;42.366;23.818;2022-08-03T03:11:14;94197.81;;;12.76;100.00
40384;BME280;26097;42.366;23.818;2022-08-03T03:14:17;94201.66;;;12.71;100.00
40384;BME280;26097;42.366;23.818;2022-08-03T03:17:19;94204.28;;;12.71;100.00
40384;BME280;26097;42.366;23.818;2022-08-03T03:20:21;94198.66;;;12.76;100.00
40384;BME280;26097;42.366;23.818;2022-08-03T03:23:23;94208.16;;;12.77;100.00
40384;BME280;26097;42.366;23.818;2022-08-03T03:26:24;94208.75;;;12.81;100.00
40384;BME280;26097;42.366;23.818;2022-08-03T03:29:25;94203.78;;;12.78;100.00
40384;BME280;26097;42.366;23.818;2022-08-03T03:32:27;94200.44;;;12.76;100.00
40384;BME280;26097;42.366;23.818;2022-08-03T03:35:28;94202.09;;;12.77;100.00
40384;BME280;26097;42.366;23.818;2022-08-03T03:38:29;94200.44;;;12.76;100.00
40384;BME280;26097;42.366;23.818;2022-08-03T03:41:30;94212.88;;;12.83;100.00
40384;BME280;26097;42.366;23.818;2022-08-03T03:44:30;94213.28;;;12.79;100.00
40384;BME280;26097;42.366;23.818;2022-08-03T03:47:32;94218.53;;;12.79;100.00
40384;BME280;26097;42.366;23.818;2022-08-03T03:50:34;94223.03;;;12.77;100.00
40384;BME280;26097;42.366;23.818;2022-08-03T03:53:36;94227.06;;;12.81;100.00
40384;BME280;26097;42.366;23.818;2022-08-03T03:56:36;94222.28;;;12.86;100.00
40384;BME280;26097;42.366;23.818;2022-08-03T03:59:38;94227.69;;;12.94;100.00
40384;BME280;26097;42.366;23.818;2022-08-03T04:02:38;94236.44;;;13.05;100.00
40384;BME280;26097;42.366;23.818;2022-08-03T04:05:39;94231.53;;;13.11;100.00
40384;BME280;26097;42.366;23.818;2022-08-03T04:08:59;94223.53;;;13.13;100.00
40384;BME280;26097;42.366;23.818;2022-08-03T04:12:19;94230.03;;;13.19;100.00
40384;BME280;26097;42.366;23.818;2022-08-03T04:15:22;94229.53;;;13.25;100.00
40384;BME280;26097;42.366;23.818;2022-08-03T04:18:27;94231.38;;;13.34;100.00
40384;BME280;26097;42.366;23.818;2022-08-03T04:21:30;94235.19;;;13.51;100.00
40384;BME280;26097;42.366;23.818;2022-08-03T04:24:34;94235.16;;;13.73;100.00
40384;BME280;26097;42.366;23.818;2022-08-03T04:27:39;94231.72;;;13.82;100.00
40384;BME280;26097;42.366;23.818;2022-08-03T04:30:42;94232.72;;;13.91;100.00
40384;BME280;26097;42.366;23.818;2022-08-03T04:33:47;94241.31;;;14.03;100.00
40384;BME280;26097;42.366;23.818;2022-08-03T04:36:52;94227.25;;;14.13;100.00
40384;BME280;26097;42.366;23.818;2022-08-03T04:39:56;94243.44;;;14.28;100.00
40384;BME280;26097;42.366;23.818;2022-08-03T04:42:58;94240.00;;;14.38;100.00
40384;BME280;26097;42.366;23.818;2022-08-03T04:46:00;94239.22;;;14.57;100.00
40384;BME280;26097;42.366;23.818;2022-08-03T04:49:01;94241.41;;;14.81;100.00
40384;BME280;26097;42.366;23.818;2022-08-03T04:52:03;94241.69;;;15.08;100.00
40384;BME280;26097;42.366;23.818;2022-08-03T04:55:04;94241.53;;;15.29;100.00
40384;BME280;26097;42.366;23.818;2022-08-03T04:58:05;94245.19;;;15.46;100.00
40384;BME280;26097;42.366;23.818;2022-08-03T05:01:05;94243.78;;;15.62;100.00
40384;BME280;26097;42.366;23.818;2022-08-03T05:04:06;94246.22;;;15.73;100.00
40384;BME280;26097;42.366;23.818;2022-08-03T05:07:07;94248.09;;;15.81;100.00
40384;BME280;26097;42.366;23.818;2022-08-03T05:10:08;94242.84;;;15.91;100.00
40384;BME280;26097;42.366;23.818;2022-08-03T05:13:09;94245.00;;;16.05;100.00
40384;BME280;26097;42.366;23.818;2022-08-03T05:16:13;94245.19;;;16.22;100.00
40384;BME280;26097;42.366;23.818;2022-08-03T05:19:13;94248.97;;;16.37;100.00
40384;BME280;26097;42.366;23.818;2022-08-03T05:22:14;94250.41;;;16.50;100.00
40384;BME280;26097;42.366;23.818;2022-08-03T05:25:14;94247.94;;;16.66;100.00
40384;BME280;26097;42.366;23.818;2022-08-03T05:28:14;94252.38;;;16.84;100.00
40384;BME280;26097;42.366;23.818;2022-08-03T05:31:15;94252.41;;;17.02;100.00
40384;BME280;26097;42.366;23.818;2022-08-03T05:34:15;94251.69;;;17.18;100.00
40384;BME280;26097;42.366;23.818;2022-08-03T05:37:16;94252.63;;;17.35;98.83
40384;BME280;26097;42.366;23.818;2022-08-03T05:40:16;94257.19;;;17.51;98.30
40384;BME280;26097;42.366;23.818;2022-08-03T05:43:17;94259.25;;;17.66;97.68
40384;BME280;26097;42.366;23.818;2022-08-03T05:46:17;94249.63;;;17.83;98.06
40384;BME280;26097;42.366;23.818;2022-08-03T05:49:18;94258.91;;;17.95;97.62
40384;BME280;26097;42.366;23.818;2022-08-03T05:52:19;94251.66;;;17.97;99.28
40384;BME280;26097;42.366;23.818;2022-08-03T05:55:19;94255.59;;;17.93;100.00
40384;BME280;26097;42.366;23.818;2022-08-03T05:58:19;94261.38;;;17.89;100.00
40384;BME280;26097;42.366;23.818;2022-08-03T06:01:20;94259.53;;;17.89;100.00
40384;BME280;26097;42.366;23.818;2022-08-03T06:04:21;94265.66;;;17.90;100.00
40384;BME280;26097;42.366;23.818;2022-08-03T06:07:21;94272.25;;;17.94;100.00
40384;BME280;26097;42.366;23.818;2022-08-03T06:10:22;94276.00;;;18.09;100.00
40384;BME280;26097;42.366;23.818;2022-08-03T06:13:22;94273.44;;;18.34;98.82
40384;BME280;26097;42.366;23.818;2022-08-03T06:16:23;94262.94;;;18.59;94.75
40384;BME280;26097;42.366;23.818;2022-08-03T06:19:23;94268.13;;;18.77;92.39
40384;BME280;26097;42.366;23.818;2022-08-03T06:22:24;94270.41;;;18.89;91.69
40384;BME280;26097;42.366;23.818;2022-08-03T06:25:25;94264.47;;;18.95;90.26
40384;BME280;26097;42.366;23.818;2022-08-03T06:28:26;94270.94;;;19.25;90.40
40384;BME280;26097;42.366;23.818;2022-08-03T06:31:26;94269.47;;;19.48;89.00
40384;BME280;26097;42.366;23.818;2022-08-03T06:34:28;94273.25;;;19.70;89.32
40384;BME280;26097;42.366;23.818;2022-08-03T06:37:29;94269.56;;;19.88;88.47
40384;BME280;26097;42.366;23.818;2022-08-03T06:40:30;94267.56;;;20.06;86.97
40384;BME280;26097;42.366;23.818;2022-08-03T06:43:30;94259.38;;;20.24;85.05
40384;BME280;26097;42.366;23.818;2022-08-03T06:46:34;94258.47;;;20.40;84.09
40384;BME280;26097;42.366;23.818;2022-08-03T06:49:35;94258.00;;;20.68;82.13
40384;BME280;26097;42.366;23.818;2022-08-03T06:52:35;94254.72;;;20.90;81.09
40384;BME280;26097;42.366;23.818;2022-08-03T06:55:36;94264.34;;;21.14;79.06
40384;BME280;26097;42.366;23.818;2022-08-03T06:58:36;94263.03;;;21.33;76.02
40384;BME280;26097;42.366;23.818;2022-08-03T07:01:37;94245.50;;;21.47;73.59
40384;BME280;26097;42.366;23.818;2022-08-03T07:04:37;94253.78;;;21.67;73.30
40384;BME280;26097;42.366;23.818;2022-08-03T07:07:38;94253.72;;;21.91;70.02
40384;BME280;26097;42.366;23.818;2022-08-03T07:10:39;94253.28;;;22.02;69.56
40384;BME280;26097;42.366;23.818;2022-08-03T07:13:40;94260.00;;;22.20;67.69
40384;BME280;26097;42.366;23.818;2022-08-03T07:16:40;94253.97;;;22.26;68.35
40384;BME280;26097;42.366;23.818;2022-08-03T07:19:40;94254.31;;;22.38;66.42
40384;BME280;26097;42.366;23.818;2022-08-03T07:22:41;94258.63;;;22.54;68.23
40384;BME280;26097;42.366;23.818;2022-08-03T07:25:41;94247.00;;;22.77;68.16
40384;BME280;26097;42.366;23.818;2022-08-03T07:28:42;94257.03;;;22.96;68.06
40384;BME280;26097;42.366;23.818;2022-08-03T07:31:42;94252.25;;;23.07;67.40
40384;BME280;26097;42.366;23.818;2022-08-03T07:34:43;94253.31;;;23.13;68.86
40384;BME280;26097;42.366;23.818;2022-08-03T07:37:43;94246.16;;;23.35;68.42
40384;BME280;26097;42.366;23.818;2022-08-03T07:40:44;94249.94;;;23.47;68.48
40384;BME280;26097;42.366;23.818;2022-08-03T07:43:44;94251.16;;;23.45;69.04
40384;BME280;26097;42.366;23.818;2022-08-03T07:46:45;94254.38;;;23.62;67.59
40384;BME280;26097;42.366;23.818;2022-08-03T07:49:45;94258.03;;;23.61;65.97
40384;BME280;26097;42.366;23.818;2022-08-03T07:52:45;94258.94;;;23.75;64.99
40384;BME280;26097;42.366;23.818;2022-08-03T07:55:50;94262.28;;;23.84;63.81
40384;BME280;26097;42.366;23.818;2022-08-03T07:58:51;94256.66;;;24.00;64.89
40384;BME280;26097;42.366;23.818;2022-08-03T08:01:52;94258.03;;;24.18;64.26
40384;BME280;26097;42.366;23.818;2022-08-03T08:04:52;94254.41;;;24.39;64.76
40384;BME280;26097;42.366;23.818;2022-08-03T08:07:53;94248.69;;;24.42;63.82
40384;BME280;26097;42.366;23.818;2022-08-03T08:10:53;94254.63;;;24.44;62.21
40384;BME280;26097;42.366;23.818;2022-08-03T08:13:54;94252.59;;;24.39;62.06
40384;BME280;26097;42.366;23.818;2022-08-03T08:16:54;94253.66;;;24.52;61.77
40384;BME280;26097;42.366;23.818;2022-08-03T08:19:55;94249.66;;;24.76;61.79
40384;BME280;26097;42.366;23.818;2022-08-03T08:22:57;94247.22;;;24.88;62.91
40384;BME280;26097;42.366;23.818;2022-08-03T08:25:58;94249.72;;;24.97;62.42
40384;BME280;26097;42.366;23.818;2022-08-03T08:28:58;94249.72;;;25.03;60.61
40384;BME280;26097;42.366;23.818;2022-08-03T08:31:59;94252.00;;;25.13;59.15
40384;BME280;26097;42.366;23.818;2022-08-03T08:34:59;94245.84;;;25.33;60.58
40384;BME280;26097;42.366;23.818;2022-08-03T08:38:00;94253.88;;;25.46;58.72
40384;BME280;26097;42.366;23.818;2022-08-03T08:41:00;94247.72;;;25.52;58.31
40384;BME280;26097;42.366;23.818;2022-08-03T08:44:01;94241.97;;;25.76;58.07
40384;BME280;26097;42.366;23.818;2022-08-03T08:47:02;94245.25;;;25.85;55.85
40384;BME280;26097;42.366;23.818;2022-08-03T08:50:04;94246.03;;;26.05;57.00
40384;BME280;26097;42.366;23.818;2022-08-03T08:53:06;94240.84;;;26.31;54.60
40384;BME280;26097;42.366;23.818;2022-08-03T08:56:07;94246.22;;;26.10;54.94
40384;BME280;26097;42.366;23.818;2022-08-03T08:59:14;94239.31;;;25.62;56.06
40384;BME280;26097;42.366;23.818;2022-08-03T09:02:15;94239.13;;;25.64;55.50
40384;BME280;26097;42.366;23.818;2022-08-03T09:05:17;94241.50;;;26.19;55.86
40384;BME280;26097;42.366;23.818;2022-08-03T09:08:19;94235.25;;;26.91;56.54
40384;BME280;26097;42.366;23.818;2022-08-03T09:11:21;94235.84;;;27.58;54.67
40384;BME280;26097;42.366;23.818;2022-08-03T09:14:22;94231.09;;;28.04;51.87
40384;BME280;26097;42.366;23.818;2022-08-03T09:17:22;94240.31;;;28.08;50.08
40384;BME280;26097;42.366;23.818;2022-08-03T09:20:25;94241.25;;;28.20;49.39
40384;BME280;26097;42.366;23.818;2022-08-03T09:23:43;94234.41;;;27.80;48.06
40384;BME280;26097;42.366;23.818;2022-08-03T09:26:49;94231.13;;;27.78;53.11
40384;BME280;26097;42.366;23.818;2022-08-03T09:29:52;94225.69;;;27.34;54.39
40384;BME280;26097;42.366;23.818;2022-08-03T09:32:59;94229.38;;;27.08;51.67
40384;BME280;26097;42.366;23.818;2022-08-03T09:36:00;94238.28;;;27.02;51.25
40384;BME280;26097;42.366;23.818;2022-08-03T09:39:21;94243.34;;;26.71;53.89
40384;BME280;26097;42.366;23.818;2022-08-03T09:42:21;94238.66;;;26.60;51.00
40384;BME280;26097;42.366;23.818;2022-08-03T09:45:26;94243.50;;;26.44;48.92
40384;BME280;26097;42.366;23.818;2022-08-03T09:48:30;94245.94;;;26.46;50.53
40384;BME280;26097;42.366;23.818;2022-08-03T09:51:33;94241.41;;;26.53;51.12
40384;BME280;26097;42.366;23.818;2022-08-03T09:54:34;94233.59;;;26.51;50.40
40384;BME280;26097;42.366;23.818;2022-08-03T09:57:35;94239.22;;;26.75;48.87
40384;BME280;26097;42.366;23.818;2022-08-03T10:01:04;94237.50;;;26.94;48.50
40384;BME280;26097;42.366;23.818;2022-08-03T10:04:05;94235.59;;;27.02;51.39
40384;BME280;26097;42.366;23.818;2022-08-03T10:07:09;94234.53;;;27.09;52.18
40384;BME280;26097;42.366;23.818;2022-08-03T10:10:10;94229.56;;;27.13;52.09
40384;BME280;26097;42.366;23.818;2022-08-03T10:13:16;94230.47;;;27.83;48.48
40384;BME280;26097;42.366;23.818;2022-08-03T10:16:17;94229.88;;;27.81;48.46
40384;BME280;26097;42.366;23.818;2022-08-03T10:19:17;94225.53;;;27.61;47.97
40384;BME280;26097;42.366;23.818;2022-08-03T10:22:21;94224.03;;;27.40;50.63
40384;BME280;26097;42.366;23.818;2022-08-03T10:25:23;94219.97;;;27.31;51.74
40384;BME280;26097;42.366;23.818;2022-08-03T10:28:24;94227.38;;;27.29;55.08
40384;BME280;26097;42.366;23.818;2022-08-03T10:31:30;94229.91;;;27.56;47.27
40384;BME280;26097;42.366;23.818;2022-08-03T10:34:34;94218.41;;;28.36;47.10
40384;BME280;26097;42.366;23.818;2022-08-03T10:37:41;94220.94;;;29.11;45.36
40384;BME280;26097;42.366;23.818;2022-08-03T10:40:43;94207.91;;;28.65;46.06
40384;BME280;26097;42.366;23.818;2022-08-03T10:43:55;94217.44;;;27.87;45.58
40384;BME280;26097;42.366;23.818;2022-08-03T10:46:58;94232.06;;;27.08;46.97
40384;BME280;26097;42.366;23.818;2022-08-03T10:50:00;94236.81;;;26.67;49.88
40384;BME280;26097;42.366;23.818;2022-08-03T10:53:05;94237.41;;;26.03;52.08
40384;BME280;26097;42.366;23.818;2022-08-03T11:03:11;94260.22;;;25.45;55.13
40384;BME280;26097;42.366;23.818;2022-08-03T11:06:16;94253.63;;;25.01;55.37
40384;BME280;26097;42.366;23.818;2022-08-03T11:09:18;94260.19;;;25.05;56.56
40384;BME280;26097;42.366;23.818;2022-08-03T11:12:25;94263.81;;;24.77;57.75
40384;BME280;26097;42.366;23.818;2022-08-03T11:15:32;94268.31;;;24.28;59.54
40384;BME280;26097;42.366;23.818;2022-08-03T11:18:33;94270.28;;;23.84;61.86
40384;BME280;26097;42.366;23.818;2022-08-03T11:28:25;94265.13;;;22.88;63.43
40384;BME280;26097;42.366;23.818;2022-08-03T11:34:32;94258.78;;;22.67;62.34
40384;BME280;26097;42.366;23.818;2022-08-03T11:37:33;94254.47;;;22.66;61.83
40384;BME280;26097;42.366;23.818;2022-08-03T11:40:48;94256.88;;;22.61;62.61
40384;BME280;26097;42.366;23.818;2022-08-03T11:43:49;94257.69;;;22.62;62.05
40384;BME280;26097;42.366;23.818;2022-08-03T11:46:49;94257.94;;;22.67;61.95
40384;BME280;26097;42.366;23.818;2022-08-03T11:49:53;94256.38;;;22.73;61.94
40384;BME280;26097;42.366;23.818;2022-08-03T11:52:54;94246.91;;;22.63;62.69
40384;BME280;26097;42.366;23.818;2022-08-03T11:55:58;94252.75;;;22.59;61.78
40384;BME280;26097;42.366;23.818;2022-08-03T11:58:58;94242.88;;;22.52;61.35
40384;BME280;26097;42.366;23.818;2022-08-03T12:02:10;94247.13;;;22.47;59.95
40384;BME280;26097;42.366;23.818;2022-08-03T12:05:11;94241.78;;;22.47;60.17
40384;BME280;26097;42.366;23.818;2022-08-03T12:08:13;94238.13;;;22.48;57.98
40384;BME280;26097;42.366;23.818;2022-08-03T12:11:14;94242.78;;;22.46;57.79
40384;BME280;26097;42.366;23.818;2022-08-03T12:14:16;94244.06;;;22.50;58.71
40384;BME280;26097;42.366;23.818;2022-08-03T12:17:17;94232.06;;;22.54;57.91
40384;BME280;26097;42.366;23.818;2022-08-03T12:20:23;94233.72;;;22.55;57.72
40384;BME280;26097;42.366;23.818;2022-08-03T12:23:26;94240.88;;;22.54;57.71
40384;BME280;26097;42.366;23.818;2022-08-03T12:26:27;94251.31;;;22.26;64.06
40384;BME280;26097;42.366;23.818;2022-08-03T12:29:28;94248.59;;;22.04;68.35
40384;BME280;26097;42.366;23.818;2022-08-03T12:32:29;94251.81;;;21.85;71.13
40384;BME280;26097;42.366;23.818;2022-08-03T12:35:30;94256.25;;;21.69;72.08
40384;BME280;26097;42.366;23.818;2022-08-03T12:38:32;94254.31;;;21.63;73.52
40384;BME280;26097;42.366;23.818;2022-08-03T12:41:37;94258.03;;;21.53;73.74
40384;BME280;26097;42.366;23.818;2022-08-03T12:44:38;94266.63;;;21.55;75.33
40384;BME280;26097;42.366;23.818;2022-08-03T12:47:57;94266.25;;;21.59;75.81
40384;BME280;26097;42.366;23.818;2022-08-03T12:51:10;94259.78;;;21.46;72.33
40384;BME280;26097;42.366;23.818;2022-08-03T12:54:20;94264.75;;;21.41;71.94
40384;BME280;26097;42.366;23.818;2022-08-03T12:57:20;94262.06;;;21.49;71.35
40384;BME280;26097;42.366;23.818;2022-08-03T13:00:21;94248.81;;;21.64;70.81
40384;BME280;26097;42.366;23.818;2022-08-03T13:03:24;94254.63;;;21.68;70.73
40384;BME280;26097;42.366;23.818;2022-08-03T13:06:25;94251.44;;;21.73;71.04
40384;BME280;26097;42.366;23.818;2022-08-03T13:09:27;94245.84;;;21.82;70.57
40384;BME280;26097;42.366;23.818;2022-08-03T13:12:28;94236.16;;;21.90;70.44
40384;BME280;26097;42.366;23.818;2022-08-03T13:15:29;94235.41;;;21.96;70.14
40384;BME280;26097;42.366;23.818;2022-08-03T13:18:30;94241.72;;;22.10;70.45
40384;BME280;26097;42.366;23.818;2022-08-03T13:21:30;94238.97;;;22.18;69.26
40384;BME280;26097;42.366;23.818;2022-08-03T13:24:32;94234.19;;;22.44;69.07
40384;BME280;26097;42.366;23.818;2022-08-03T13:27:32;94235.25;;;22.64;68.96
40384;BME280;26097;42.366;23.818;2022-08-03T13:30:33;94231.59;;;22.87;66.29
40384;BME280;26097;42.366;23.818;2022-08-03T13:33:33;94231.97;;;23.06;65.05
40384;BME280;26097;42.366;23.818;2022-08-03T13:36:34;94226.72;;;23.34;63.21
40384;BME280;26097;42.366;23.818;2022-08-03T13:39:34;94223.59;;;23.52;61.62
40384;BME280;26097;42.366;23.818;2022-08-03T13:42:35;94220.47;;;23.77;61.42
40384;BME280;26097;42.366;23.818;2022-08-03T13:45:36;94223.44;;;23.96;64.28
40384;BME280;26097;42.366;23.818;2022-08-03T13:48:36;94214.88;;;24.01;58.27
40384;BME280;26097;42.366;23.818;2022-08-03T13:51:37;94201.25;;;24.17;57.87
40384;BME280;26097;42.366;23.818;2022-08-03T13:54:37;94197.88;;;24.44;55.51
40384;BME280;26097;42.366;23.818;2022-08-03T13:57:37;94193.03;;;24.67;56.08
40384;BME280;26097;42.366;23.818;2022-08-03T14:00:38;94188.81;;;25.07;57.49
40384;BME280;26097;42.366;23.818;2022-08-03T14:03:39;94186.94;;;25.14;57.27
40384;BME280;26097;42.366;23.818;2022-08-03T14:06:39;94188.19;;;25.12;56.41
40384;BME280;26097;42.366;23.818;2022-08-03T14:09:40;94185.31;;;25.40;56.69
40384;BME280;26097;42.366;23.818;2022-08-03T14:12:40;94182.81;;;25.79;53.91
40384;BME280;26097;42.366;23.818;2022-08-03T14:15:41;94176.88;;;27.14;55.32
40384;BME280;26097;42.366;23.818;2022-08-03T14:18:41;94171.25;;;27.47;48.85
40384;BME280;26097;42.366;23.818;2022-08-03T14:21:42;94167.47;;;28.36;48.78
40384;BME280;26097;42.366;23.818;2022-08-03T14:24:42;94163.28;;;29.02;49.05
40384;BME280;26097;42.366;23.818;2022-08-03T14:27:43;94164.34;;;29.13;46.20
40384;BME280;26097;42.366;23.818;2022-08-03T14:30:44;94156.56;;;29.35;42.63
40384;BME280;26097;42.366;23.818;2022-08-03T14:33:44;94153.75;;;28.45;45.47
40384;BME280;26097;42.366;23.818;2022-08-03T14:36:45;94161.19;;;28.05;49.65
40384;BME280;26097;42.366;23.818;2022-08-03T14:39:46;94147.88;;;28.67;45.65
40384;BME280;26097;42.366;23.818;2022-08-03T14:42:47;94145.75;;;28.87;45.87
40384;BME280;26097;42.366;23.818;2022-08-03T14:45:49;94145.66;;;28.33;45.33
40384;BME280;26097;42.366;23.818;2022-08-03T14:48:52;94150.94;;;28.40;45.34
40384;BME280;26097;42.366;23.818;2022-08-03T14:51:53;94141.97;;;28.46;51.12
40384;BME280;26097;42.366;23.818;2022-08-03T14:54:53;94147.28;;;28.34;45.76
40384;BME280;26097;42.366;23.818;2022-08-03T14:57:53;94146.13;;;28.60;47.69
40384;BME280;26097;42.366;23.818;2022-08-03T15:00:54;94138.44;;;28.33;50.75
40384;BME280;26097;42.366;23.818;2022-08-03T15:03:55;94138.78;;;27.18;53.78
40384;BME280;26097;42.366;23.818;2022-08-03T15:06:55;94133.22;;;26.17;57.25
40384;BME280;26097;42.366;23.818;2022-08-03T15:09:56;94135.03;;;25.64;58.89
40384;BME280;26097;42.366;23.818;2022-08-03T15:12:56;94126.94;;;25.84;60.44
40384;BME280;26097;42.366;23.818;2022-08-03T15:15:56;94130.84;;;26.41;59.80
40384;BME280;26097;42.366;23.818;2022-08-03T15:18:57;94123.16;;;26.12;60.55
40384;BME280;26097;42.366;23.818;2022-08-03T15:21:57;94126.81;;;25.65;61.88
40384;BME280;26097;42.366;23.818;2022-08-03T15:24:58;94122.28;;;26.25;60.32
40384;BME280;26097;42.366;23.818;2022-08-03T15:27:58;94116.50;;;26.35;59.99
40384;BME280;26097;42.366;23.818;2022-08-03T15:30:59;94120.09;;;26.54;60.62
40384;BME280;26097;42.366;23.818;2022-08-03T15:34:00;94125.31;;;26.67;60.20
40384;BME280;26097;42.366;23.818;2022-08-03T15:37:00;94121.03;;;25.75;62.96
40384;BME280;26097;42.366;23.818;2022-08-03T15:40:01;94115.56;;;26.09;62.45
40384;BME280;26097;42.366;23.818;2022-08-03T15:43:01;94120.84;;;25.70;63.41
40384;BME280;26097;42.366;23.818;2022-08-03T15:46:02;94125.81;;;24.92;66.04
40384;BME280;26097;42.366;23.818;2022-08-03T15:49:04;94124.31;;;24.43;68.02
40384;BME280;26097;42.366;23.818;2022-08-03T15:52:04;94125.06;;;24.16;69.74
40384;BME280;26097;42.366;23.818;2022-08-03T15:55:05;94126.38;;;23.92;70.63
40384;BME280;26097;42.366;23.818;2022-08-03T15:58:06;94121.81;;;24.21;69.32
40384;BME280;26097;42.366;23.818;2022-08-03T16:01:06;94125.16;;;23.94;70.92
40384;BME280;26097;42.366;23.818;2022-08-03T16:04:07;94127.75;;;23.81;71.75
40384;BME280;26097;42.366;23.818;2022-08-03T16:07:07;94125.88;;;23.68;71.86
40384;BME280;26097;42.366;23.818;2022-08-03T16:10:09;94128.66;;;23.53;72.98
40384;BME280;26097;42.366;23.818;2022-08-03T16:13:09;94134.22;;;23.30;74.18